createdAt,value
2019-03-29T00:00:08.629Z,14.60
2019-03-29T00:02:37.979Z,12.40
2019-03-29T00:05:07.476Z,9.57
2019-03-29T00:07:39.852Z,11.03
2019-03-29T00:10:08.545Z,12.17
2019-03-29T00:12:37.829Z,9.03
2019-03-29T00:15:07.938Z,9.43
2019-03-29T00:17:37.348Z,7.87
2019-03-29T00:20:06.756Z,10.37
2019-03-29T00:22:36.250Z,11.10
2019-03-29T00:25:06.383Z,11.30
2019-03-29T00:27:36.413Z,11.47
2019-03-29T00:30:06.517Z,10.70
2019-03-29T00:32:35.785Z,8.10
2019-03-29T00:35:05.781Z,11.27
2019-03-29T00:37:35.102Z,12.60
2019-03-29T00:40:04.753Z,7.30
2019-03-29T00:42:34.057Z,8.37
2019-03-29T00:45:03.451Z,13.47
2019-03-29T00:47:32.701Z,6.83
2019-03-29T00:50:01.957Z,6.90
2019-03-29T00:52:31.217Z,7.47
2019-03-29T00:55:02.812Z,6.97
2019-03-29T00:57:32.045Z,8.23
2019-03-29T01:00:01.325Z,12.13
2019-03-29T01:02:30.578Z,6.53
2019-03-29T01:04:59.837Z,7.63
2019-03-29T01:07:29.114Z,7.40
2019-03-29T01:09:58.450Z,6.03
2019-03-29T01:12:28.717Z,5.27
2019-03-29T01:14:57.977Z,7.57
2019-03-29T01:17:27.290Z,7.93
2019-03-29T01:19:56.530Z,8.23
2019-03-29T01:22:25.800Z,10.07
2019-03-29T01:24:55.058Z,26.57
2019-03-29T01:27:24.329Z,12.07
2019-03-29T01:29:53.601Z,23.37
2019-03-29T01:32:22.926Z,8.97
2019-03-29T01:34:52.187Z,13.33
2019-03-29T01:37:21.449Z,9.50
2019-03-29T01:39:50.701Z,14.23
2019-03-29T01:42:19.941Z,13.63
2019-03-29T01:44:49.232Z,19.37
2019-03-29T01:47:18.481Z,16.23
2019-03-29T01:49:47.840Z,16.83
2019-03-29T01:52:17.113Z,16.40
2019-03-29T01:54:46.360Z,23.93
2019-03-29T01:57:15.625Z,47.70
2019-03-29T01:59:44.906Z,20.77
2019-03-29T02:02:14.154Z,23.37
2019-03-29T02:04:43.457Z,17.77
2019-03-29T02:07:12.723Z,17.30
2019-03-29T02:09:41.957Z,16.03
2019-03-29T02:12:11.329Z,14.90
2019-03-29T02:14:40.677Z,16.23
2019-03-29T02:17:09.921Z,15.57
2019-03-29T02:19:39.285Z,17.00
2019-03-29T02:22:09.101Z,15.13
2019-03-29T02:24:38.706Z,13.47
2019-03-29T02:27:07.965Z,14.37
2019-03-29T02:29:37.241Z,14.00
2019-03-29T02:32:06.471Z,15.40
2019-03-29T02:34:35.834Z,14.67
2019-03-29T02:37:05.190Z,15.23
2019-03-29T02:39:34.429Z,14.13
2019-03-29T02:42:03.781Z,12.97
2019-03-29T02:44:34.832Z,14.10
2019-03-29T02:47:04.236Z,14.40
2019-03-29T02:49:33.470Z,13.57
2019-03-29T02:52:02.762Z,12.77
2019-03-29T02:54:32.097Z,15.53
2019-03-29T02:57:02.883Z,15.23
2019-03-29T02:59:32.152Z,15.47
2019-03-29T03:02:01.497Z,14.50
2019-03-29T03:04:30.866Z,15.03
2019-03-29T03:07:00.426Z,13.63
2019-03-29T03:09:29.684Z,12.80
2019-03-29T03:11:59.042Z,14.87
2019-03-29T03:14:28.400Z,14.13
2019-03-29T03:16:57.724Z,15.90
2019-03-29T03:19:26.954Z,15.17
2019-03-29T03:21:56.242Z,13.03
2019-03-29T03:24:25.492Z,13.87
2019-03-29T03:26:54.868Z,13.90
2019-03-29T03:29:24.136Z,12.57
2019-03-29T03:31:53.368Z,13.40
2019-03-29T03:34:22.623Z,15.83
2019-03-29T03:36:51.974Z,14.27
2019-03-29T03:39:31.550Z,14.07
2019-03-29T03:41:52.349Z,13.83
2019-03-29T03:44:21.603Z,15.73
2019-03-29T03:46:50.907Z,10.77
2019-03-29T03:49:20.160Z,11.50
2019-03-29T03:51:49.600Z,14.83
2019-03-29T03:54:19.387Z,12.63
2019-03-29T03:56:51.033Z,12.70
2019-03-29T03:59:21.193Z,11.27
2019-03-29T04:01:50.453Z,10.83
2019-03-29T04:04:19.802Z,11.57
2019-03-29T04:06:49.066Z,10.57
2019-03-29T04:09:18.299Z,11.10
2019-03-29T04:11:47.572Z,11.43
2019-03-29T04:14:16.845Z,11.40
2019-03-29T04:16:46.098Z,11.00
2019-03-29T04:19:15.415Z,11.33
2019-03-29T04:21:44.812Z,11.50
2019-03-29T04:24:14.097Z,10.90
2019-03-29T04:26:43.340Z,14.23
2019-03-29T04:29:12.610Z,10.63
2019-03-29T04:31:41.867Z,9.57
2019-03-29T04:34:11.104Z,9.77
2019-03-29T04:36:40.365Z,9.03
2019-03-29T04:39:09.606Z,9.70
2019-03-29T04:41:38.969Z,9.77
2019-03-29T04:44:08.269Z,10.83
2019-03-29T04:46:37.589Z,10.30
2019-03-29T04:49:06.834Z,9.67
2019-03-29T04:51:36.106Z,10.03
2019-03-29T04:54:05.359Z,10.50
2019-03-29T04:56:34.587Z,9.73
2019-03-29T04:59:03.908Z,10.30
2019-03-29T05:01:33.201Z,12.47
2019-03-29T05:04:02.810Z,10.77
2019-03-29T05:06:32.053Z,12.00
2019-03-29T05:09:02.692Z,13.90
2019-03-29T05:11:31.954Z,13.37
2019-03-29T05:14:01.252Z,12.70
2019-03-29T05:16:30.536Z,13.40
2019-03-29T05:18:59.785Z,16.83
2019-03-29T05:21:29.073Z,16.03
2019-03-29T05:23:58.382Z,15.73
2019-03-29T05:26:27.671Z,16.97
2019-03-29T05:28:56.961Z,15.87
2019-03-29T05:31:26.267Z,18.03
2019-03-29T05:33:55.521Z,16.37
2019-03-29T05:36:24.845Z,18.20
2019-03-29T05:38:54.106Z,18.83
2019-03-29T05:41:23.339Z,17.90
2019-03-29T05:43:52.609Z,17.53
2019-03-29T05:46:21.853Z,17.50
2019-03-29T05:48:52.269Z,16.23
2019-03-29T05:51:21.567Z,18.07
2019-03-29T05:53:50.852Z,18.20
2019-03-29T05:56:20.160Z,18.63
2019-03-29T05:58:49.445Z,19.43
2019-03-29T06:01:18.761Z,16.57
2019-03-29T06:03:48.034Z,18.87
2019-03-29T06:06:17.313Z,24.40
2019-03-29T06:08:46.556Z,17.23
2019-03-29T06:11:15.897Z,14.10
2019-03-29T06:13:45.196Z,18.50
2019-03-29T06:16:14.540Z,17.33
2019-03-29T06:18:43.809Z,20.43
2019-03-29T06:21:13.123Z,19.50
2019-03-29T06:23:42.640Z,20.60
2019-03-29T06:26:11.855Z,18.70
2019-03-29T06:28:41.153Z,18.90
2019-03-29T06:31:10.565Z,17.83
2019-03-29T06:33:39.933Z,19.00
2019-03-29T06:36:10.406Z,19.47
2019-03-29T06:38:41.481Z,16.33
2019-03-29T06:41:10.779Z,17.23
2019-03-29T06:43:40.123Z,18.03
2019-03-29T06:46:09.371Z,23.90
2019-03-29T06:48:38.629Z,17.97
2019-03-29T06:51:07.945Z,16.67
2019-03-29T06:53:37.421Z,15.83
2019-03-29T06:56:06.736Z,18.33
2019-03-29T06:58:36.029Z,16.50
2019-03-29T07:01:05.388Z,15.57
2019-03-29T07:03:34.685Z,24.60
2019-03-29T07:06:04.077Z,17.27
2019-03-29T07:08:33.485Z,11.80
2019-03-29T07:11:16.174Z,14.00
2019-03-29T07:13:33.842Z,18.80
2019-03-29T07:16:03.157Z,17.03
2019-03-29T07:18:32.497Z,20.27
2019-03-29T07:21:01.963Z,17.27
2019-03-29T07:23:31.194Z,21.63
2019-03-29T07:26:00.738Z,26.27
2019-03-29T07:28:29.989Z,21.00
2019-03-29T07:30:59.245Z,25.87
2019-03-29T07:33:28.505Z,20.87
2019-03-29T07:35:57.869Z,26.80
2019-03-29T07:38:27.297Z,26.00
2019-03-29T07:40:56.538Z,28.17
2019-03-29T07:43:25.846Z,24.13
2019-03-29T07:45:55.105Z,26.13
2019-03-29T07:48:24.404Z,23.40
2019-03-29T07:50:53.697Z,25.40
2019-03-29T07:53:22.939Z,25.73
2019-03-29T07:55:52.325Z,34.00
2019-03-29T07:58:21.614Z,26.63
2019-03-29T08:00:50.979Z,36.43
2019-03-29T08:03:23.905Z,30.70
2019-03-29T08:05:53.276Z,30.40
2019-03-29T08:08:24.819Z,34.57
2019-03-29T08:10:54.226Z,34.40
2019-03-29T08:13:24.055Z,36.30
2019-03-29T08:15:53.334Z,36.03
2019-03-29T08:18:22.653Z,34.93
2019-03-29T08:20:52.003Z,32.53
2019-03-29T08:23:21.262Z,36.73
2019-03-29T08:25:50.525Z,36.33
2019-03-29T08:28:22.194Z,38.27
2019-03-29T08:30:51.504Z,36.23
2019-03-29T08:33:20.826Z,44.63
2019-03-29T08:35:50.125Z,41.47
2019-03-29T08:38:19.397Z,42.63
2019-03-29T08:40:48.670Z,38.90
2019-03-29T08:43:18.053Z,40.53
2019-03-29T08:45:47.312Z,42.23
2019-03-29T08:48:16.582Z,46.23
2019-03-29T08:50:45.933Z,41.17
2019-03-29T08:53:15.321Z,43.73
2019-03-29T08:55:46.055Z,42.77
2019-03-29T08:58:15.758Z,43.17
2019-03-29T09:00:45.013Z,40.87
2019-03-29T09:03:14.273Z,43.20
2019-03-29T09:05:43.629Z,40.20
2019-03-29T09:08:12.897Z,36.87
2019-03-29T09:10:42.168Z,40.57
2019-03-29T09:13:11.554Z,42.90
2019-03-29T09:15:40.958Z,42.57
2019-03-29T09:18:10.326Z,41.57
2019-03-29T09:20:39.613Z,48.07
2019-03-29T09:23:10.544Z,48.37
2019-03-29T09:25:40.564Z,46.17
2019-03-29T09:28:10.210Z,48.77
2019-03-29T09:30:39.466Z,46.73
2019-03-29T09:33:08.872Z,43.63
2019-03-29T09:35:38.281Z,46.77
2019-03-29T09:38:07.555Z,42.00
2019-03-29T09:40:36.881Z,45.23
2019-03-29T09:43:07.610Z,44.07
2019-03-29T09:45:37.261Z,41.33
2019-03-29T09:48:06.605Z,45.47
2019-03-29T09:50:36.027Z,51.33
2019-03-29T09:53:05.391Z,46.20
2019-03-29T09:55:34.629Z,48.47
2019-03-29T09:58:03.886Z,51.03
2019-03-29T10:00:33.215Z,48.50
2019-03-29T10:03:02.522Z,47.67
2019-03-29T10:05:31.880Z,43.90
2019-03-29T10:08:01.231Z,49.80
2019-03-29T10:10:30.614Z,48.30
2019-03-29T10:12:59.975Z,45.90
2019-03-29T10:15:29.417Z,51.43
2019-03-29T10:17:58.742Z,47.17
2019-03-29T10:20:28.025Z,44.93
2019-03-29T10:22:57.289Z,47.03
2019-03-29T10:25:26.559Z,47.17
2019-03-29T10:27:55.829Z,48.77
2019-03-29T10:30:38.878Z,53.30
2019-03-29T10:33:08.148Z,49.37
2019-03-29T10:35:50.803Z,49.63
2019-03-29T10:38:09.089Z,48.07
2019-03-29T10:40:38.399Z,49.47
2019-03-29T10:43:07.639Z,47.13
2019-03-29T10:45:40.339Z,49.70
2019-03-29T10:48:08.189Z,46.20
2019-03-29T10:50:37.460Z,46.80
2019-03-29T10:53:06.806Z,47.73
2019-03-29T10:55:36.188Z,51.07
2019-03-29T10:58:24.411Z,45.17
2019-03-29T11:00:53.706Z,48.50
2019-03-29T11:03:23.038Z,47.30
2019-03-29T11:05:52.282Z,49.57
2019-03-29T11:08:21.562Z,48.70
2019-03-29T11:10:50.819Z,44.08
2019-03-29T11:13:20.162Z,49.67
2019-03-29T11:15:49.522Z,45.63
2019-03-29T11:18:18.850Z,43.90
2019-03-29T11:20:48.101Z,46.90
2019-03-29T11:23:17.414Z,50.23
2019-03-29T11:25:48.562Z,46.53
2019-03-29T11:28:17.683Z,46.30
2019-03-29T11:30:46.954Z,47.35
2019-03-29T11:33:16.220Z,49.70
2019-03-29T11:35:45.553Z,43.83
2019-03-29T11:38:14.825Z,41.45
2019-03-29T11:40:44.110Z,48.58
2019-03-29T11:43:26.112Z,48.70
2019-03-29T11:45:44.407Z,47.53
2019-03-29T11:48:13.721Z,47.67
2019-03-29T11:50:43.053Z,50.17
2019-03-29T11:53:12.417Z,46.85
2019-03-29T11:55:41.753Z,43.35
2019-03-29T11:58:11.018Z,46.33
2019-03-29T12:00:40.587Z,48.70
2019-03-29T12:03:10.158Z,43.40
2019-03-29T12:05:39.399Z,47.38
2019-03-29T12:08:08.801Z,46.50
2019-03-29T12:10:38.141Z,47.10
2019-03-29T12:13:08.908Z,45.60
2019-03-29T12:15:38.821Z,50.35
2019-03-29T12:18:08.258Z,45.98
2019-03-29T12:20:37.532Z,41.02
2019-03-29T12:23:06.968Z,45.75
2019-03-29T12:25:36.248Z,44.50
2019-03-29T12:28:06.161Z,45.58
2019-03-29T12:30:35.718Z,47.50
2019-03-29T12:33:05.157Z,51.55
2019-03-29T12:35:34.417Z,46.95
2019-03-29T12:38:03.764Z,45.88
2019-03-29T12:40:33.161Z,48.05
2019-03-29T12:43:02.478Z,46.70
2019-03-29T12:45:31.932Z,42.10
2019-03-29T12:48:01.350Z,40.15
2019-03-29T12:50:30.634Z,43.80
2019-03-29T12:53:02.874Z,42.25
2019-03-29T12:55:32.145Z,39.15
2019-03-29T12:58:01.414Z,43.48
2019-03-29T13:00:30.847Z,37.00
2019-03-29T13:03:00.145Z,37.25
2019-03-29T13:05:29.470Z,40.80
2019-03-29T13:07:58.869Z,38.53
2019-03-29T13:10:28.461Z,37.50
2019-03-29T13:13:00.506Z,43.58
2019-03-29T13:15:29.173Z,31.30
2019-03-29T13:17:58.549Z,29.48
2019-03-29T13:20:27.894Z,31.57
2019-03-29T13:22:57.194Z,30.23
2019-03-29T13:25:26.437Z,31.07
2019-03-29T13:27:59.206Z,30.10
2019-03-29T13:30:26.869Z,34.35
2019-03-29T13:32:56.153Z,26.62
2019-03-29T13:35:25.569Z,27.13
2019-03-29T13:37:55.033Z,26.35
2019-03-29T13:40:24.439Z,27.27
2019-03-29T13:42:53.708Z,24.37
2019-03-29T13:45:23.000Z,23.45
2019-03-29T13:47:52.238Z,25.08
2019-03-29T13:50:21.537Z,23.90
2019-03-29T13:52:50.811Z,25.40
2019-03-29T13:55:20.144Z,24.20
2019-03-29T13:57:49.402Z,23.65
2019-03-29T14:00:18.861Z,20.68
2019-03-29T14:02:48.175Z,22.62
2019-03-29T14:05:17.459Z,25.57
2019-03-29T14:07:46.748Z,24.43
2019-03-29T14:10:16.211Z,23.90
2019-03-29T14:12:45.463Z,27.10
2019-03-29T14:15:15.791Z,19.57
2019-03-29T14:17:45.101Z,21.45
2019-03-29T14:20:17.519Z,21.15
2019-03-29T14:22:46.816Z,22.95
2019-03-29T14:25:16.136Z,22.35
2019-03-29T14:27:45.411Z,21.57
2019-03-29T14:30:14.941Z,27.10
2019-03-29T14:32:44.207Z,22.55
2019-03-29T14:35:13.681Z,22.02
2019-03-29T14:37:42.989Z,20.25
2019-03-29T14:40:12.426Z,18.65
2019-03-29T14:42:42.718Z,19.90
2019-03-29T14:45:12.486Z,20.12
2019-03-29T14:47:43.791Z,20.00
2019-03-29T14:50:12.904Z,20.17
2019-03-29T14:52:42.195Z,20.48
2019-03-29T14:55:11.885Z,19.77
2019-03-29T14:57:41.294Z,19.95
2019-03-29T15:00:12.713Z,19.70
2019-03-29T15:02:41.985Z,21.37
2019-03-29T15:05:11.597Z,20.43
2019-03-29T15:07:42.856Z,21.52
2019-03-29T15:10:26.217Z,20.50
2019-03-29T15:12:55.695Z,29.55
2019-03-29T15:15:25.120Z,23.30
2019-03-29T15:17:54.495Z,20.25
2019-03-29T15:20:23.863Z,25.35
2019-03-29T15:22:53.200Z,21.07
2019-03-29T15:25:22.637Z,23.73
2019-03-29T15:27:51.906Z,20.45
2019-03-29T15:30:21.394Z,18.85
2019-03-29T15:32:50.736Z,19.67
2019-03-29T15:35:21.037Z,18.02
2019-03-29T15:37:50.493Z,19.95
2019-03-29T15:40:19.821Z,17.90
2019-03-29T15:42:49.209Z,24.90
2019-03-29T15:45:20.705Z,18.48
2019-03-29T15:47:49.590Z,18.48
2019-03-29T15:50:18.905Z,16.60
2019-03-29T15:52:48.150Z,15.93
2019-03-29T15:55:17.538Z,16.97
2019-03-29T15:57:46.848Z,20.35
2019-03-29T16:00:19.095Z,17.67
2019-03-29T16:02:48.527Z,18.55
2019-03-29T16:05:19.515Z,14.55
2019-03-29T16:07:49.548Z,14.75
2019-03-29T16:10:18.925Z,15.35
2019-03-29T16:12:48.921Z,13.45
2019-03-29T16:15:18.385Z,13.58
2019-03-29T16:17:47.679Z,13.32
2019-03-29T16:20:17.077Z,12.20
2019-03-29T16:22:46.325Z,11.40
2019-03-29T16:25:15.767Z,11.50
2019-03-29T16:27:45.201Z,13.22
2019-03-29T16:30:14.965Z,11.70
2019-03-29T16:32:44.257Z,10.70
2019-03-29T16:35:13.678Z,10.50
2019-03-29T16:37:56.385Z,10.18
2019-03-29T16:40:14.305Z,13.08
2019-03-29T16:42:43.644Z,12.15
2019-03-29T16:45:13.585Z,10.30
2019-03-29T16:47:42.891Z,11.25
2019-03-29T16:50:13.733Z,13.45
2019-03-29T16:52:43.038Z,9.75
2019-03-29T16:55:14.084Z,9.90
2019-03-29T16:57:43.483Z,10.63
2019-03-29T17:00:13.037Z,13.68
2019-03-29T17:02:42.473Z,11.53
2019-03-29T17:05:12.056Z,9.68
2019-03-29T17:07:41.413Z,11.22
2019-03-29T17:10:11.281Z,11.80
2019-03-29T17:12:40.555Z,12.50
2019-03-29T17:15:09.908Z,13.58
2019-03-29T17:17:39.153Z,12.65
2019-03-29T17:20:08.937Z,9.35
2019-03-29T17:22:38.221Z,15.38
2019-03-29T17:25:08.031Z,11.03
2019-03-29T17:27:37.332Z,12.00
2019-03-29T17:30:09.455Z,14.03
2019-03-29T17:32:38.702Z,14.40
2019-03-29T17:35:08.405Z,13.68
2019-03-29T17:37:37.754Z,13.45
2019-03-29T17:40:07.720Z,12.65
2019-03-29T17:42:37.093Z,14.38
2019-03-29T17:45:06.977Z,12.25
2019-03-29T17:47:36.236Z,19.15
2019-03-29T17:50:06.321Z,12.82
2019-03-29T17:52:35.629Z,13.60
2019-03-29T17:55:05.801Z,29.02
2019-03-29T17:57:35.159Z,39.20
2019-03-29T18:00:05.847Z,47.85
2019-03-29T18:02:35.189Z,56.10
2019-03-29T18:05:05.381Z,54.93
2019-03-29T18:07:34.712Z,54.23
2019-03-29T18:10:04.596Z,55.53
2019-03-29T18:12:33.939Z,58.07
2019-03-29T18:15:03.233Z,59.00
2019-03-29T18:17:32.502Z,58.83
2019-03-29T18:20:01.797Z,56.67
2019-03-29T18:22:31.228Z,60.03
2019-03-29T18:25:01.767Z,56.97
2019-03-29T18:27:31.097Z,56.83
2019-03-29T18:30:02.365Z,54.23
2019-03-29T18:32:32.821Z,62.23
2019-03-29T18:35:02.328Z,57.43
2019-03-29T18:37:31.745Z,60.20
2019-03-29T18:40:01.631Z,62.90
2019-03-29T18:42:31.078Z,67.37
2019-03-29T18:45:00.506Z,66.20
2019-03-29T18:47:29.797Z,69.30
2019-03-29T18:49:59.186Z,63.10
2019-03-29T18:52:28.440Z,62.07
2019-03-29T18:54:57.819Z,60.43
2019-03-29T18:57:27.093Z,76.53
2019-03-29T18:59:56.350Z,66.70
2019-03-29T19:02:25.629Z,57.20
2019-03-29T19:04:54.897Z,68.93
2019-03-29T19:07:29.281Z,63.13
2019-03-29T19:09:58.672Z,65.97
2019-03-29T19:12:27.941Z,59.73
2019-03-29T19:14:57.203Z,65.37
2019-03-29T19:17:26.501Z,63.60
2019-03-29T19:19:55.842Z,61.63
2019-03-29T19:22:25.270Z,57.43
2019-03-29T19:24:54.655Z,70.53
2019-03-29T19:27:23.930Z,62.47
2019-03-29T19:29:53.187Z,63.30
2019-03-29T19:32:22.915Z,64.87
2019-03-29T19:34:52.217Z,57.17
2019-03-29T19:37:21.538Z,61.20
2019-03-29T19:39:50.877Z,58.03
2019-03-29T19:42:20.158Z,61.03
2019-03-29T19:44:49.445Z,63.03
2019-03-29T19:47:18.970Z,66.17
2019-03-29T19:49:48.297Z,56.80
2019-03-29T19:52:17.558Z,60.67
2019-03-29T19:54:46.948Z,58.53
2019-03-29T19:57:16.355Z,55.03
2019-03-29T19:59:48.075Z,56.27
2019-03-29T20:02:16.794Z,68.70
2019-03-29T20:04:46.136Z,55.43
2019-03-29T20:07:15.419Z,70.03
2019-03-29T20:09:44.752Z,57.20
2019-03-29T20:12:14.097Z,57.80
2019-03-29T20:14:43.359Z,58.70
2019-03-29T20:17:26.687Z,57.77
2019-03-29T20:19:43.706Z,55.83
2019-03-29T20:22:16.039Z,57.17
2019-03-29T20:24:43.974Z,55.90
2019-03-29T20:27:13.232Z,56.87
2019-03-29T20:29:42.492Z,59.17
2019-03-29T20:32:11.797Z,51.60
2019-03-29T20:34:41.063Z,61.57
2019-03-29T20:37:10.334Z,59.97
2019-03-29T20:39:39.617Z,53.87
2019-03-29T20:42:08.991Z,48.50
2019-03-29T20:44:38.325Z,61.77
2019-03-29T20:47:07.614Z,51.17
2019-03-29T20:49:39.231Z,51.90
2019-03-29T20:52:08.489Z,43.07
2019-03-29T20:54:37.833Z,46.27
2019-03-29T20:57:09.269Z,48.80
2019-03-29T20:59:38.541Z,48.90
2019-03-29T21:02:07.846Z,43.17
2019-03-29T21:04:37.133Z,45.03
2019-03-29T21:07:08.775Z,44.07
2019-03-29T21:09:38.134Z,50.77
2019-03-29T21:12:07.384Z,51.57
2019-03-29T21:14:36.674Z,48.13
2019-03-29T21:17:06.033Z,47.73
2019-03-29T21:19:35.269Z,46.10
2019-03-29T21:22:04.637Z,43.90
2019-03-29T21:24:33.980Z,45.13
2019-03-29T21:27:03.261Z,47.17
2019-03-29T21:29:32.641Z,54.87
2019-03-29T21:32:02.169Z,55.08
2019-03-29T21:34:31.447Z,47.93
2019-03-29T21:37:00.836Z,49.20
2019-03-29T21:39:31.353Z,53.90
2019-03-29T21:42:00.881Z,47.10
2019-03-29T21:44:30.173Z,50.87
2019-03-29T21:46:59.601Z,53.60
2019-03-29T21:49:28.931Z,53.40
2019-03-29T21:51:58.398Z,52.07
2019-03-29T21:54:27.712Z,53.43
2019-03-29T21:56:57.338Z,51.90
2019-03-29T21:59:26.738Z,50.10
2019-03-29T22:01:56.015Z,52.90
2019-03-29T22:04:25.294Z,55.83
2019-03-29T22:06:54.604Z,55.77
2019-03-29T22:09:36.368Z,63.80
2019-03-29T22:11:54.856Z,58.57
2019-03-29T22:14:24.213Z,60.33
2019-03-29T22:16:53.466Z,59.20
2019-03-29T22:19:22.753Z,57.00
2019-03-29T22:21:52.062Z,64.10
2019-03-29T22:24:21.495Z,57.73
2019-03-29T22:26:50.896Z,61.70
2019-03-29T22:29:20.373Z,58.60
2019-03-29T22:31:49.660Z,62.90
2019-03-29T22:34:19.193Z,56.23
2019-03-29T22:36:48.473Z,59.67
2019-03-29T22:39:17.771Z,65.30
2019-03-29T22:41:48.814Z,69.57
2019-03-29T22:44:22.033Z,64.53
2019-03-29T22:46:51.454Z,64.40
2019-03-29T22:49:20.756Z,65.37
2019-03-29T22:51:50.127Z,60.97
2019-03-29T22:54:19.485Z,62.90
2019-03-29T22:56:48.801Z,62.13
2019-03-29T22:59:18.116Z,59.70
2019-03-29T23:01:48.101Z,65.03
2019-03-29T23:04:20.558Z,62.57
2019-03-29T23:06:54.825Z,58.73
2019-03-29T23:09:24.187Z,58.77
2019-03-29T23:11:53.468Z,62.47
2019-03-29T23:14:22.934Z,60.30
2019-03-29T23:16:52.397Z,56.33
2019-03-29T23:19:21.905Z,57.70
2019-03-29T23:21:51.395Z,57.10
2019-03-29T23:24:20.788Z,62.73
2019-03-29T23:26:50.045Z,61.07
2019-03-29T23:29:19.452Z,59.37
2019-03-29T23:31:48.683Z,55.40
2019-03-29T23:34:18.047Z,59.63
2019-03-29T23:36:47.331Z,56.90
2019-03-29T23:39:16.921Z,55.07
2019-03-29T23:41:46.205Z,68.28
2019-03-29T23:44:15.600Z,59.07
2019-03-29T23:46:44.865Z,57.07
2019-03-29T23:49:20.863Z,51.30
2019-03-29T23:51:45.188Z,51.40
2019-03-29T23:54:14.545Z,56.50
2019-03-29T23:56:43.808Z,53.57
2019-03-29T23:59:13.218Z,50.97
